sensor_id;sensor_type;location;lat;lon;timestamp;temperature;humidity
45785;DHT22;31489;51.404;5.474;2023-01-01T00:01:37;18.90;57.80
45785;DHT22;31489;51.404;5.474;2023-01-01T00:04:06;18.90;57.80
45785;DHT22;31489;51.404;5.474;2023-01-01T00:06:33;18.90;57.40
45785;DHT22;31489;51.404;5.474;2023-01-01T00:08:59;18.90;57.00
45785;DHT22;31489;51.404;5.474;2023-01-01T00:11:43;18.90;56.50
45785;DHT22;31489;51.404;5.474;2023-01-01T00:14:09;19.00;57.00
45785;DHT22;31489;51.404;5.474;2023-01-01T00:16:35;19.00;56.80
45785;DHT22;31489;51.404;5.474;2023-01-01T00:19:00;19.00;56.60
45785;DHT22;31489;51.404;5.474;2023-01-01T00:21:26;19.00;56.50
45785;DHT22;31489;51.404;5.474;2023-01-01T00:23:51;19.00;56.50
45785;DHT22;31489;51.404;5.474;2023-01-01T00:26:17;19.10;56.10
45785;DHT22;31489;51.404;5.474;2023-01-01T00:28:44;19.10;56.30
45785;DHT22;31489;51.404;5.474;2023-01-01T00:31:16;19.10;56.00
45785;DHT22;31489;51.404;5.474;2023-01-01T00:33:43;19.10;55.00
45785;DHT22;31489;51.404;5.474;2023-01-01T00:36:10;19.10;55.50
45785;DHT22;31489;51.404;5.474;2023-01-01T00:38:36;19.10;55.20
45785;DHT22;31489;51.404;5.474;2023-01-01T00:41:02;19.10;55.00
45785;DHT22;31489;51.404;5.474;2023-01-01T00:43:28;19.10;54.80
45785;DHT22;31489;51.404;5.474;2023-01-01T00:45:54;19.10;55.10
45785;DHT22;31489;51.404;5.474;2023-01-01T00:48:20;19.10;55.00
45785;DHT22;31489;51.404;5.474;2023-01-01T00:50:47;19.10;54.90
45785;DHT22;31489;51.404;5.474;2023-01-01T00:53:13;19.10;54.90
45785;DHT22;31489;51.404;5.474;2023-01-01T00:55:40;19.10;54.90
45785;DHT22;31489;51.404;5.474;2023-01-01T00:58:06;19.10;55.00
45785;DHT22;31489;51.404;5.474;2023-01-01T01:00:31;19.10;55.20
45785;DHT22;31489;51.404;5.474;2023-01-01T01:02:57;19.10;55.00
45785;DHT22;31489;51.404;5.474;2023-01-01T01:05:22;19.10;55.20
45785;DHT22;31489;51.404;5.474;2023-01-01T01:07:48;19.10;54.90
45785;DHT22;31489;51.404;5.474;2023-01-01T01:10:14;19.10;54.90
45785;DHT22;31489;51.404;5.474;2023-01-01T01:12:40;19.10;54.80
45785;DHT22;31489;51.404;5.474;2023-01-01T01:15:06;19.10;55.00
45785;DHT22;31489;51.404;5.474;2023-01-01T01:17:32;19.00;54.30
45785;DHT22;31489;51.404;5.474;2023-01-01T01:19:58;19.00;54.60
45785;DHT22;31489;51.404;5.474;2023-01-01T01:22:24;19.00;54.90
45785;DHT22;31489;51.404;5.474;2023-01-01T01:24:50;19.00;54.40
45785;DHT22;31489;51.404;5.474;2023-01-01T01:27:16;19.00;54.70
45785;DHT22;31489;51.404;5.474;2023-01-01T01:29:41;19.00;54.50
45785;DHT22;31489;51.404;5.474;2023-01-01T01:32:08;19.00;54.30
45785;DHT22;31489;51.404;5.474;2023-01-01T01:34:34;19.00;54.60
45785;DHT22;31489;51.404;5.474;2023-01-01T01:36:59;19.00;54.70
45785;DHT22;31489;51.404;5.474;2023-01-01T01:39:25;19.00;54.80
45785;DHT22;31489;51.404;5.474;2023-01-01T01:41:50;18.90;54.80
45785;DHT22;31489;51.404;5.474;2023-01-01T01:47:28;18.90;53.30
45785;DHT22;31489;51.404;5.474;2023-01-01T01:50:00;18.80;53.60
45785;DHT22;31489;51.404;5.474;2023-01-01T01:52:27;18.80;54.30
45785;DHT22;31489;51.404;5.474;2023-01-01T01:54:54;18.80;54.80
45785;DHT22;31489;51.404;5.474;2023-01-01T01:57:20;18.80;54.70
45785;DHT22;31489;51.404;5.474;2023-01-01T01:59:49;18.70;54.60
45785;DHT22;31489;51.404;5.474;2023-01-01T02:02:36;18.70;54.00
45785;DHT22;31489;51.404;5.474;2023-01-01T02:05:04;18.70;54.00
45785;DHT22;31489;51.404;5.474;2023-01-01T02:07:31;18.70;55.00
45785;DHT22;31489;51.404;5.474;2023-01-01T02:09:58;18.60;55.00
45785;DHT22;31489;51.404;5.474;2023-01-01T02:12:25;18.60;55.00
45785;DHT22;31489;51.404;5.474;2023-01-01T02:14:52;18.60;54.70
45785;DHT22;31489;51.404;5.474;2023-01-01T02:17:38;18.60;55.10
45785;DHT22;31489;51.404;5.474;2023-01-01T02:20:22;18.60;54.40
45785;DHT22;31489;51.404;5.474;2023-01-01T02:26:07;18.60;54.40
45785;DHT22;31489;51.404;5.474;2023-01-01T02:31:16;18.50;54.60
45785;DHT22;31489;51.404;5.474;2023-01-01T02:33:45;18.50;55.30
45785;DHT22;31489;51.404;5.474;2023-01-01T02:36:12;18.50;55.60
45785;DHT22;31489;51.404;5.474;2023-01-01T02:38:41;18.40;55.20
45785;DHT22;31489;51.404;5.474;2023-01-01T02:41:12;18.40;55.10
45785;DHT22;31489;51.404;5.474;2023-01-01T02:43:41;18.40;54.70
45785;DHT22;31489;51.404;5.474;2023-01-01T02:46:08;18.40;55.60
45785;DHT22;31489;51.404;5.474;2023-01-01T02:51:03;18.40;55.70
45785;DHT22;31489;51.404;5.474;2023-01-01T02:53:35;18.40;55.20
45785;DHT22;31489;51.404;5.474;2023-01-01T02:56:31;18.40;55.50
45785;DHT22;31489;51.404;5.474;2023-01-01T03:10:20;18.40;56.00
45785;DHT22;31489;51.404;5.474;2023-01-01T03:13:13;18.40;55.50
45785;DHT22;31489;51.404;5.474;2023-01-01T03:15:55;18.30;55.10
45785;DHT22;31489;51.404;5.474;2023-01-01T03:18:28;18.40;56.00
45785;DHT22;31489;51.404;5.474;2023-01-01T03:20:56;18.40;56.10
45785;DHT22;31489;51.404;5.474;2023-01-01T03:23:34;18.40;56.30
45785;DHT22;31489;51.404;5.474;2023-01-01T03:26:06;18.30;56.10
45785;DHT22;31489;51.404;5.474;2023-01-01T03:28:35;18.30;55.90
45785;DHT22;31489;51.404;5.474;2023-01-01T03:31:02;18.30;56.10
45785;DHT22;31489;51.404;5.474;2023-01-01T03:33:41;18.30;57.10
45785;DHT22;31489;51.404;5.474;2023-01-01T03:36:14;18.30;56.20
45785;DHT22;31489;51.404;5.474;2023-01-01T03:38:44;18.30;56.20
45785;DHT22;31489;51.404;5.474;2023-01-01T03:41:20;18.30;56.90
45785;DHT22;31489;51.404;5.474;2023-01-01T03:43:53;18.20;56.50
45785;DHT22;31489;51.404;5.474;2023-01-01T03:46:24;18.20;56.30
45785;DHT22;31489;51.404;5.474;2023-01-01T03:48:51;18.20;56.70
45785;DHT22;31489;51.404;5.474;2023-01-01T04:02:18;18.20;57.60
45785;DHT22;31489;51.404;5.474;2023-01-01T04:04:46;18.20;57.90
45785;DHT22;31489;51.404;5.474;2023-01-01T04:07:12;18.10;57.50
45785;DHT22;31489;51.404;5.474;2023-01-01T04:09:39;18.20;57.60
45785;DHT22;31489;51.404;5.474;2023-01-01T04:12:07;18.20;57.40
45785;DHT22;31489;51.404;5.474;2023-01-01T04:14:36;18.10;57.60
45785;DHT22;31489;51.404;5.474;2023-01-01T04:17:04;18.20;57.60
45785;DHT22;31489;51.404;5.474;2023-01-01T04:19:30;18.10;57.90
45785;DHT22;31489;51.404;5.474;2023-01-01T04:21:56;18.10;58.40
45785;DHT22;31489;51.404;5.474;2023-01-01T04:24:22;18.10;58.60
45785;DHT22;31489;51.404;5.474;2023-01-01T04:26:49;18.10;58.70
45785;DHT22;31489;51.404;5.474;2023-01-01T04:29:15;18.00;59.20
45785;DHT22;31489;51.404;5.474;2023-01-01T04:31:41;18.00;59.10
45785;DHT22;31489;51.404;5.474;2023-01-01T04:34:06;17.90;59.40
45785;DHT22;31489;51.404;5.474;2023-01-01T04:36:33;17.90;59.70
45785;DHT22;31489;51.404;5.474;2023-01-01T04:38:58;17.80;59.50
45785;DHT22;31489;51.404;5.474;2023-01-01T04:41:24;17.80;59.40
45785;DHT22;31489;51.404;5.474;2023-01-01T04:43:50;17.80;59.60
45785;DHT22;31489;51.404;5.474;2023-01-01T04:46:17;17.70;59.70
45785;DHT22;31489;51.404;5.474;2023-01-01T04:48:43;17.70;59.60
45785;DHT22;31489;51.404;5.474;2023-01-01T04:51:10;17.70;59.80
45785;DHT22;31489;51.404;5.474;2023-01-01T04:53:36;17.70;59.50
45785;DHT22;31489;51.404;5.474;2023-01-01T04:58:29;17.70;59.80
45785;DHT22;31489;51.404;5.474;2023-01-01T05:00:54;17.70;59.90
45785;DHT22;31489;51.404;5.474;2023-01-01T05:03:20;17.70;59.90
45785;DHT22;31489;51.404;5.474;2023-01-01T05:05:45;17.70;60.00
45785;DHT22;31489;51.404;5.474;2023-01-01T05:08:13;17.70;60.00
45785;DHT22;31489;51.404;5.474;2023-01-01T05:10:38;17.70;60.10
45785;DHT22;31489;51.404;5.474;2023-01-01T05:13:07;17.70;60.10
45785;DHT22;31489;51.404;5.474;2023-01-01T05:15:36;17.70;59.80
45785;DHT22;31489;51.404;5.474;2023-01-01T05:18:02;17.70;60.20
45785;DHT22;31489;51.404;5.474;2023-01-01T05:20:27;17.70;60.40
45785;DHT22;31489;51.404;5.474;2023-01-01T05:22:53;17.70;60.10
45785;DHT22;31489;51.404;5.474;2023-01-01T05:25:18;17.70;60.00
45785;DHT22;31489;51.404;5.474;2023-01-01T05:27:44;17.70;60.20
45785;DHT22;31489;51.404;5.474;2023-01-01T05:30:10;17.70;60.00
45785;DHT22;31489;51.404;5.474;2023-01-01T05:32:36;17.70;60.20
45785;DHT22;31489;51.404;5.474;2023-01-01T05:35:02;17.70;60.40
45785;DHT22;31489;51.404;5.474;2023-01-01T05:37:28;17.70;60.50
45785;DHT22;31489;51.404;5.474;2023-01-01T05:39:53;17.70;60.40
45785;DHT22;31489;51.404;5.474;2023-01-01T05:42:19;17.70;60.50
45785;DHT22;31489;51.404;5.474;2023-01-01T05:44:44;17.70;60.40
45785;DHT22;31489;51.404;5.474;2023-01-01T05:47:10;17.70;60.30
45785;DHT22;31489;51.404;5.474;2023-01-01T05:49:36;17.70;60.40
45785;DHT22;31489;51.404;5.474;2023-01-01T05:52:02;17.70;60.70
45785;DHT22;31489;51.404;5.474;2023-01-01T05:54:28;17.70;60.50
45785;DHT22;31489;51.404;5.474;2023-01-01T05:56:53;17.70;60.60
45785;DHT22;31489;51.404;5.474;2023-01-01T05:59:19;17.70;60.70
45785;DHT22;31489;51.404;5.474;2023-01-01T06:01:44;17.70;60.70
45785;DHT22;31489;51.404;5.474;2023-01-01T06:04:10;17.70;60.70
45785;DHT22;31489;51.404;5.474;2023-01-01T06:06:36;17.70;60.70
45785;DHT22;31489;51.404;5.474;2023-01-01T06:09:03;17.60;60.60
45785;DHT22;31489;51.404;5.474;2023-01-01T06:11:31;17.60;60.40
45785;DHT22;31489;51.404;5.474;2023-01-01T06:13:58;17.70;60.80
45785;DHT22;31489;51.404;5.474;2023-01-01T06:16:25;17.70;60.70
45785;DHT22;31489;51.404;5.474;2023-01-01T06:18:51;17.60;60.80
45785;DHT22;31489;51.404;5.474;2023-01-01T06:21:22;17.60;60.80
45785;DHT22;31489;51.404;5.474;2023-01-01T06:23:48;17.60;60.60
45785;DHT22;31489;51.404;5.474;2023-01-01T06:26:17;17.60;61.00
45785;DHT22;31489;51.404;5.474;2023-01-01T06:28:45;17.60;61.00
45785;DHT22;31489;51.404;5.474;2023-01-01T06:31:13;17.60;61.00
45785;DHT22;31489;51.404;5.474;2023-01-01T06:33:40;17.60;61.20
45785;DHT22;31489;51.404;5.474;2023-01-01T06:36:07;17.60;61.70
45785;DHT22;31489;51.404;5.474;2023-01-01T06:38:35;17.60;61.70
45785;DHT22;31489;51.404;5.474;2023-01-01T06:41:08;17.60;61.70
45785;DHT22;31489;51.404;5.474;2023-01-01T06:43:35;17.60;61.40
45785;DHT22;31489;51.404;5.474;2023-01-01T06:48:40;17.50;62.00
45785;DHT22;31489;51.404;5.474;2023-01-01T06:51:11;17.50;62.70
45785;DHT22;31489;51.404;5.474;2023-01-01T06:53:37;17.50;63.10
45785;DHT22;31489;51.404;5.474;2023-01-01T06:56:03;17.40;64.40
45785;DHT22;31489;51.404;5.474;2023-01-01T06:58:29;17.40;64.60
45785;DHT22;31489;51.404;5.474;2023-01-01T07:01:08;17.20;65.00
45785;DHT22;31489;51.404;5.474;2023-01-01T07:03:35;17.10;65.50
45785;DHT22;31489;51.404;5.474;2023-01-01T07:06:00;17.00;65.70
45785;DHT22;31489;51.404;5.474;2023-01-01T07:08:26;16.90;66.30
45785;DHT22;31489;51.404;5.474;2023-01-01T07:10:51;16.80;67.00
45785;DHT22;31489;51.404;5.474;2023-01-01T07:13:17;16.70;67.40
45785;DHT22;31489;51.404;5.474;2023-01-01T07:15:43;16.60;67.90
45785;DHT22;31489;51.404;5.474;2023-01-01T07:18:09;16.50;68.40
45785;DHT22;31489;51.404;5.474;2023-01-01T07:20:34;16.40;68.70
45785;DHT22;31489;51.404;5.474;2023-01-01T07:23:00;16.30;69.10
45785;DHT22;31489;51.404;5.474;2023-01-01T07:25:28;16.20;69.40
45785;DHT22;31489;51.404;5.474;2023-01-01T07:27:54;16.10;69.90
45785;DHT22;31489;51.404;5.474;2023-01-01T07:30:20;15.90;70.20
45785;DHT22;31489;51.404;5.474;2023-01-01T07:32:45;15.90;70.80
45785;DHT22;31489;51.404;5.474;2023-01-01T07:35:11;15.80;71.20
45785;DHT22;31489;51.404;5.474;2023-01-01T07:37:36;15.70;71.40
45785;DHT22;31489;51.404;5.474;2023-01-01T07:40:02;15.70;71.80
45785;DHT22;31489;51.404;5.474;2023-01-01T07:42:28;15.60;72.10
45785;DHT22;31489;51.404;5.474;2023-01-01T07:44:54;15.60;72.40
45785;DHT22;31489;51.404;5.474;2023-01-01T07:47:24;15.60;72.70
45785;DHT22;31489;51.404;5.474;2023-01-01T07:49:51;15.60;73.20
45785;DHT22;31489;51.404;5.474;2023-01-01T07:52:17;15.60;73.10
45785;DHT22;31489;51.404;5.474;2023-01-01T07:54:42;15.60;73.30
45785;DHT22;31489;51.404;5.474;2023-01-01T07:57:08;15.60;73.40
45785;DHT22;31489;51.404;5.474;2023-01-01T07:59:34;15.60;73.70
45785;DHT22;31489;51.404;5.474;2023-01-01T08:02:00;15.60;73.80
45785;DHT22;31489;51.404;5.474;2023-01-01T08:04:25;15.60;74.10
45785;DHT22;31489;51.404;5.474;2023-01-01T08:06:52;15.60;74.10
45785;DHT22;31489;51.404;5.474;2023-01-01T08:09:18;15.60;74.10
45785;DHT22;31489;51.404;5.474;2023-01-01T08:11:44;15.60;74.20
45785;DHT22;31489;51.404;5.474;2023-01-01T08:14:10;15.60;74.20
45785;DHT22;31489;51.404;5.474;2023-01-01T08:16:35;15.60;74.50
45785;DHT22;31489;51.404;5.474;2023-01-01T08:19:01;15.70;74.50
45785;DHT22;31489;51.404;5.474;2023-01-01T08:21:27;15.70;74.60
45785;DHT22;31489;51.404;5.474;2023-01-01T08:23:52;15.70;74.60
45785;DHT22;31489;51.404;5.474;2023-01-01T08:26:29;15.70;74.70
45785;DHT22;31489;51.404;5.474;2023-01-01T08:28:56;15.70;74.70
45785;DHT22;31489;51.404;5.474;2023-01-01T08:31:22;15.70;74.60
45785;DHT22;31489;51.404;5.474;2023-01-01T08:33:47;15.70;74.60
45785;DHT22;31489;51.404;5.474;2023-01-01T08:36:13;15.70;74.80
45785;DHT22;31489;51.404;5.474;2023-01-01T08:38:41;15.70;74.80
45785;DHT22;31489;51.404;5.474;2023-01-01T08:41:07;15.70;75.00
45785;DHT22;31489;51.404;5.474;2023-01-01T08:43:33;15.70;75.10
45785;DHT22;31489;51.404;5.474;2023-01-01T08:45:59;15.70;75.20
45785;DHT22;31489;51.404;5.474;2023-01-01T08:48:24;15.80;75.30
45785;DHT22;31489;51.404;5.474;2023-01-01T08:50:55;15.80;75.20
45785;DHT22;31489;51.404;5.474;2023-01-01T08:53:21;15.80;75.20
45785;DHT22;31489;51.404;5.474;2023-01-01T08:55:57;15.80;75.30
45785;DHT22;31489;51.404;5.474;2023-01-01T08:58:23;15.80;75.40
45785;DHT22;31489;51.404;5.474;2023-01-01T09:00:49;15.80;75.30
45785;DHT22;31489;51.404;5.474;2023-01-01T09:03:15;15.80;75.40
45785;DHT22;31489;51.404;5.474;2023-01-01T09:05:40;15.80;75.30
45785;DHT22;31489;51.404;5.474;2023-01-01T09:08:10;15.80;75.50
45785;DHT22;31489;51.404;5.474;2023-01-01T09:10:36;15.70;75.50
45785;DHT22;31489;51.404;5.474;2023-01-01T09:13:02;15.80;75.50
45785;DHT22;31489;51.404;5.474;2023-01-01T09:15:27;15.70;75.50
45785;DHT22;31489;51.404;5.474;2023-01-01T09:17:53;15.70;75.70
45785;DHT22;31489;51.404;5.474;2023-01-01T09:20:18;15.60;75.60
45785;DHT22;31489;51.404;5.474;2023-01-01T09:22:44;15.70;75.80
45785;DHT22;31489;51.404;5.474;2023-01-01T09:25:10;15.70;75.90
45785;DHT22;31489;51.404;5.474;2023-01-01T09:27:35;15.70;76.00
45785;DHT22;31489;51.404;5.474;2023-01-01T09:30:01;15.70;76.20
45785;DHT22;31489;51.404;5.474;2023-01-01T09:32:27;15.70;76.30
45785;DHT22;31489;51.404;5.474;2023-01-01T09:34:52;15.70;76.70
45785;DHT22;31489;51.404;5.474;2023-01-01T09:37:18;15.70;76.00
45785;DHT22;31489;51.404;5.474;2023-01-01T09:39:44;15.80;76.00
45785;DHT22;31489;51.404;5.474;2023-01-01T09:45:00;15.80;75.80
45785;DHT22;31489;51.404;5.474;2023-01-01T09:47:31;15.80;75.70
45785;DHT22;31489;51.404;5.474;2023-01-01T09:50:17;15.90;75.60
45785;DHT22;31489;51.404;5.474;2023-01-01T09:52:58;15.80;75.10
45785;DHT22;31489;51.404;5.474;2023-01-01T09:58:12;15.90;75.10
45785;DHT22;31489;51.404;5.474;2023-01-01T10:00:43;15.90;75.00
45785;DHT22;31489;51.404;5.474;2023-01-01T10:06:26;15.90;74.40
45785;DHT22;31489;51.404;5.474;2023-01-01T10:15:38;16.00;73.60
45785;DHT22;31489;51.404;5.474;2023-01-01T10:17:57;16.00;73.90
45785;DHT22;31489;51.404;5.474;2023-01-01T10:20:37;16.00;74.00
45785;DHT22;31489;51.404;5.474;2023-01-01T10:23:25;16.00;73.60
45785;DHT22;31489;51.404;5.474;2023-01-01T10:25:53;16.00;73.60
45785;DHT22;31489;51.404;5.474;2023-01-01T10:28:34;16.10;73.90
45785;DHT22;31489;51.404;5.474;2023-01-01T10:33:55;16.20;73.10
45785;DHT22;31489;51.404;5.474;2023-01-01T10:36:20;16.20;73.70
45785;DHT22;31489;51.404;5.474;2023-01-01T10:38:49;16.30;73.80
45785;DHT22;31489;51.404;5.474;2023-01-01T10:41:16;16.30;73.60
45785;DHT22;31489;51.404;5.474;2023-01-01T10:43:42;16.40;73.60
45785;DHT22;31489;51.404;5.474;2023-01-01T10:46:12;16.40;73.20
45785;DHT22;31489;51.404;5.474;2023-01-01T10:48:39;16.50;73.00
45785;DHT22;31489;51.404;5.474;2023-01-01T10:51:14;16.60;73.30
45785;DHT22;31489;51.404;5.474;2023-01-01T10:53:42;16.60;72.50
45785;DHT22;31489;51.404;5.474;2023-01-01T10:56:24;16.80;73.00
45785;DHT22;31489;51.404;5.474;2023-01-01T10:58:51;16.90;72.20
45785;DHT22;31489;51.404;5.474;2023-01-01T11:01:30;17.00;72.30
45785;DHT22;31489;51.404;5.474;2023-01-01T11:04:02;17.10;71.80
45785;DHT22;31489;51.404;5.474;2023-01-01T11:06:37;17.20;72.00
45785;DHT22;31489;51.404;5.474;2023-01-01T11:09:26;17.40;72.50
45785;DHT22;31489;51.404;5.474;2023-01-01T11:12:06;17.50;71.40
45785;DHT22;31489;51.404;5.474;2023-01-01T11:14:38;17.60;71.00
45785;DHT22;31489;51.404;5.474;2023-01-01T11:17:08;17.70;70.40
45785;DHT22;31489;51.404;5.474;2023-01-01T11:19:40;17.80;69.60
45785;DHT22;31489;51.404;5.474;2023-01-01T11:22:08;17.80;69.20
45785;DHT22;31489;51.404;5.474;2023-01-01T11:24:40;17.80;69.20
45785;DHT22;31489;51.404;5.474;2023-01-01T11:27:21;17.70;68.80
45785;DHT22;31489;51.404;5.474;2023-01-01T11:29:47;17.70;67.40
45785;DHT22;31489;51.404;5.474;2023-01-01T11:32:19;17.70;68.20
45785;DHT22;31489;51.404;5.474;2023-01-01T11:34:52;17.60;68.10
45785;DHT22;31489;51.404;5.474;2023-01-01T11:39:55;17.50;67.50
45785;DHT22;31489;51.404;5.474;2023-01-01T11:42:27;17.50;68.40
45785;DHT22;31489;51.404;5.474;2023-01-01T11:44:58;17.50;67.80
45785;DHT22;31489;51.404;5.474;2023-01-01T11:47:34;17.40;67.80
45785;DHT22;31489;51.404;5.474;2023-01-01T11:50:31;17.50;67.30
45785;DHT22;31489;51.404;5.474;2023-01-01T11:58:51;17.50;67.30
45785;DHT22;31489;51.404;5.474;2023-01-01T12:01:42;17.40;66.70
45785;DHT22;31489;51.404;5.474;2023-01-01T12:06:58;17.40;66.50
45785;DHT22;31489;51.404;5.474;2023-01-01T12:09:57;17.40;66.60
45785;DHT22;31489;51.404;5.474;2023-01-01T12:17:41;17.40;66.50
45785;DHT22;31489;51.404;5.474;2023-01-01T12:22:45;17.40;66.60
45785;DHT22;31489;51.404;5.474;2023-01-01T12:25:14;17.40;67.20
45785;DHT22;31489;51.404;5.474;2023-01-01T12:38:23;17.50;67.30
45785;DHT22;31489;51.404;5.474;2023-01-01T12:59:50;17.50;66.10
45785;DHT22;31489;51.404;5.474;2023-01-01T13:02:29;17.50;65.70
45785;DHT22;31489;51.404;5.474;2023-01-01T13:05:09;17.50;65.20
45785;DHT22;31489;51.404;5.474;2023-01-01T13:07:39;17.40;65.20
45785;DHT22;31489;51.404;5.474;2023-01-01T13:10:29;17.30;65.80
45785;DHT22;31489;51.404;5.474;2023-01-01T13:12:56;17.40;65.60
45785;DHT22;31489;51.404;5.474;2023-01-01T13:15:51;17.30;66.20
45785;DHT22;31489;51.404;5.474;2023-01-01T13:18:20;17.30;65.70
45785;DHT22;31489;51.404;5.474;2023-01-01T13:45:37;17.20;66.90
45785;DHT22;31489;51.404;5.474;2023-01-01T13:56:02;17.10;67.00
45785;DHT22;31489;51.404;5.474;2023-01-01T14:01:56;17.10;66.40
45785;DHT22;31489;51.404;5.474;2023-01-01T14:04:40;17.10;66.30
45785;DHT22;31489;51.404;5.474;2023-01-01T14:13:15;17.10;67.00
45785;DHT22;31489;51.404;5.474;2023-01-01T14:18:15;17.10;67.00
45785;DHT22;31489;51.404;5.474;2023-01-01T14:20:50;17.00;67.30
45785;DHT22;31489;51.404;5.474;2023-01-01T14:23:18;17.00;67.20
45785;DHT22;31489;51.404;5.474;2023-01-01T14:25:45;17.00;67.40
45785;DHT22;31489;51.404;5.474;2023-01-01T14:28:26;17.00;67.50
45785;DHT22;31489;51.404;5.474;2023-01-01T14:30:53;17.00;67.00
45785;DHT22;31489;51.404;5.474;2023-01-01T14:33:33;17.00;67.60
45785;DHT22;31489;51.404;5.474;2023-01-01T14:36:04;16.90;66.90
45785;DHT22;31489;51.404;5.474;2023-01-01T14:38:32;16.90;67.30
45785;DHT22;31489;51.404;5.474;2023-01-01T14:44:14;16.90;67.00
45785;DHT22;31489;51.404;5.474;2023-01-01T14:46:46;16.90;68.00
45785;DHT22;31489;51.404;5.474;2023-01-01T14:49:22;16.90;68.00
45785;DHT22;31489;51.404;5.474;2023-01-01T14:54:54;16.80;67.70
45785;DHT22;31489;51.404;5.474;2023-01-01T14:57:27;16.80;68.70
45785;DHT22;31489;51.404;5.474;2023-01-01T14:59:54;16.80;67.90
45785;DHT22;31489;51.404;5.474;2023-01-01T15:02:29;16.80;68.00
45785;DHT22;31489;51.404;5.474;2023-01-01T15:04:56;16.80;67.80
45785;DHT22;31489;51.404;5.474;2023-01-01T15:07:29;16.80;68.20
45785;DHT22;31489;51.404;5.474;2023-01-01T15:09:58;16.80;67.70
45785;DHT22;31489;51.404;5.474;2023-01-01T15:12:28;16.70;67.90
45785;DHT22;31489;51.404;5.474;2023-01-01T15:14:55;16.70;68.10
45785;DHT22;31489;51.404;5.474;2023-01-01T15:17:26;16.70;68.20
45785;DHT22;31489;51.404;5.474;2023-01-01T15:20:05;16.70;68.20
45785;DHT22;31489;51.404;5.474;2023-01-01T15:22:35;16.70;68.00
45785;DHT22;31489;51.404;5.474;2023-01-01T15:25:03;16.70;68.10
45785;DHT22;31489;51.404;5.474;2023-01-01T15:27:34;16.60;68.40
45785;DHT22;31489;51.404;5.474;2023-01-01T15:30:03;16.60;68.40
45785;DHT22;31489;51.404;5.474;2023-01-01T15:32:32;16.60;68.60
45785;DHT22;31489;51.404;5.474;2023-01-01T15:35:02;16.60;68.70
45785;DHT22;31489;51.404;5.474;2023-01-01T15:39:59;16.60;68.90
45785;DHT22;31489;51.404;5.474;2023-01-01T15:42:34;16.60;68.80
45785;DHT22;31489;51.404;5.474;2023-01-01T15:45:22;16.60;69.00
45785;DHT22;31489;51.404;5.474;2023-01-01T15:47:52;16.60;68.70
45785;DHT22;31489;51.404;5.474;2023-01-01T15:50:23;16.60;69.00
45785;DHT22;31489;51.404;5.474;2023-01-01T15:52:56;16.60;69.10
45785;DHT22;31489;51.404;5.474;2023-01-01T15:55:25;16.60;69.10
45785;DHT22;31489;51.404;5.474;2023-01-01T15:57:52;16.60;69.30
45785;DHT22;31489;51.404;5.474;2023-01-01T16:00:27;16.50;69.10
45785;DHT22;31489;51.404;5.474;2023-01-01T16:02:58;16.50;68.80
45785;DHT22;31489;51.404;5.474;2023-01-01T16:05:26;16.50;69.10
45785;DHT22;31489;51.404;5.474;2023-01-01T16:08:00;16.50;69.40
45785;DHT22;31489;51.404;5.474;2023-01-01T16:10:26;16.50;69.40
45785;DHT22;31489;51.404;5.474;2023-01-01T16:12:52;16.50;69.70
45785;DHT22;31489;51.404;5.474;2023-01-01T16:15:18;16.50;70.10
45785;DHT22;31489;51.404;5.474;2023-01-01T16:17:44;16.40;70.10
45785;DHT22;31489;51.404;5.474;2023-01-01T16:20:18;16.40;70.40
45785;DHT22;31489;51.404;5.474;2023-01-01T16:22:44;16.30;70.80
45785;DHT22;31489;51.404;5.474;2023-01-01T16:25:17;16.30;70.60
45785;DHT22;31489;51.404;5.474;2023-01-01T16:27:43;16.30;71.00
45785;DHT22;31489;51.404;5.474;2023-01-01T16:30:10;16.20;70.90
45785;DHT22;31489;51.404;5.474;2023-01-01T16:32:36;16.10;71.20
45785;DHT22;31489;51.404;5.474;2023-01-01T16:35:02;16.10;71.50
45785;DHT22;31489;51.404;5.474;2023-01-01T16:37:30;16.00;71.80
45785;DHT22;31489;51.404;5.474;2023-01-01T16:39:56;16.00;71.90
45785;DHT22;31489;51.404;5.474;2023-01-01T16:42:22;16.00;72.30
45785;DHT22;31489;51.404;5.474;2023-01-01T16:44:48;15.90;72.30
45785;DHT22;31489;51.404;5.474;2023-01-01T16:47:14;15.90;72.40
45785;DHT22;31489;51.404;5.474;2023-01-01T16:49:40;15.80;72.60
45785;DHT22;31489;51.404;5.474;2023-01-01T16:52:05;15.80;72.70
45785;DHT22;31489;51.404;5.474;2023-01-01T16:54:31;15.80;73.00
45785;DHT22;31489;51.404;5.474;2023-01-01T16:56:57;15.80;73.20
45785;DHT22;31489;51.404;5.474;2023-01-01T16:59:22;15.80;73.30
45785;DHT22;31489;51.404;5.474;2023-01-01T17:01:49;15.70;73.40
45785;DHT22;31489;51.404;5.474;2023-01-01T17:04:14;15.70;73.60
45785;DHT22;31489;51.404;5.474;2023-01-01T17:06:40;15.80;73.90
45785;DHT22;31489;51.404;5.474;2023-01-01T17:09:06;15.70;73.80
45785;DHT22;31489;51.404;5.474;2023-01-01T17:11:32;15.70;73.90
45785;DHT22;31489;51.404;5.474;2023-01-01T17:13:59;15.70;74.10
45785;DHT22;31489;51.404;5.474;2023-01-01T17:16:25;15.70;74.20
45785;DHT22;31489;51.404;5.474;2023-01-01T17:18:54;15.70;74.30
45785;DHT22;31489;51.404;5.474;2023-01-01T17:21:20;15.70;74.50
45785;DHT22;31489;51.404;5.474;2023-01-01T17:23:46;15.70;74.60
45785;DHT22;31489;51.404;5.474;2023-01-01T17:26:15;15.70;75.10
45785;DHT22;31489;51.404;5.474;2023-01-01T17:28:42;15.70;74.70
45785;DHT22;31489;51.404;5.474;2023-01-01T17:31:10;15.70;74.80
45785;DHT22;31489;51.404;5.474;2023-01-01T17:33:37;15.70;75.00
45785;DHT22;31489;51.404;5.474;2023-01-01T17:36:04;15.70;75.10
45785;DHT22;31489;51.404;5.474;2023-01-01T17:38:30;15.60;75.20
45785;DHT22;31489;51.404;5.474;2023-01-01T17:41:03;15.60;75.30
45785;DHT22;31489;51.404;5.474;2023-01-01T17:43:31;15.60;75.40
45785;DHT22;31489;51.404;5.474;2023-01-01T17:46:02;15.60;75.70
45785;DHT22;31489;51.404;5.474;2023-01-01T17:48:27;15.50;75.60
45785;DHT22;31489;51.404;5.474;2023-01-01T17:50:53;15.60;75.90
45785;DHT22;31489;51.404;5.474;2023-01-01T17:53:19;15.50;75.80
45785;DHT22;31489;51.404;5.474;2023-01-01T17:55:44;15.50;75.80
45785;DHT22;31489;51.404;5.474;2023-01-01T17:58:10;15.50;75.90
45785;DHT22;31489;51.404;5.474;2023-01-01T18:00:35;15.40;76.00
45785;DHT22;31489;51.404;5.474;2023-01-01T18:03:01;15.40;76.30
45785;DHT22;31489;51.404;5.474;2023-01-01T18:05:27;15.40;76.40
45785;DHT22;31489;51.404;5.474;2023-01-01T18:07:52;15.30;76.50
45785;DHT22;31489;51.404;5.474;2023-01-01T18:10:18;15.30;76.60
45785;DHT22;31489;51.404;5.474;2023-01-01T18:12:44;15.20;76.70
45785;DHT22;31489;51.404;5.474;2023-01-01T18:15:09;15.30;77.00
45785;DHT22;31489;51.404;5.474;2023-01-01T18:17:35;15.20;77.00
45785;DHT22;31489;51.404;5.474;2023-01-01T18:20:01;15.20;77.10